Bei Facebook empfehlenBei Twitter postenGoogle plusPinterest

Das Wetter im Erzgebirge am 17.05.2017

Wetter und Klima am 17.05.2017 Holzhau im Erzgebirge (630m ü.NN)
Letzte gemessene Temperatur und Uhrzeit der Messung23:45:00 Uhr12.70 °C
Temperatur (Maximum / Höchstwert) und Uhrzeit der Messung16:00:00 Uhr23.30 °C
Temperatur (Minimum / Tiefstwert) und Uhrzeit der Messung06:15:0010.80 °C
Errechneter Absolutwert der Temperaturschwankungen zwischen Tmin und Tmax des Tages12.50 K
Errechnete Tagesmitteltemperatur16.92917 °C
Gesamt - Niederschlag des Tages (in flüssiger Form)0.00 Liter / m²
Luftdruck (Maximum / Höchstwert) und Zeitpunkt der Messung00:00:00 Uhr1024.30 hPa
Luftdruck (Minimum / Tiefstwert) und Zeitpunkt der Messung23:45:00 Uhr1015.40 hPa
Errechneter Absolutwert der Luftdruckschwankungen des Tages8.90 hPa
Höchste gemessene Windgeschwindigkeit und Uhrzeit der Messung17:45:00 Uhr660.96 km/h
Errechnete Windhäufigkeit in Relation zu den Messwerten des Tages27.08333 %
Niedrigste Windkühle (Windchill) und Zeitpunkt der Messung06:15:00 Uhr10.80 °C
Taupunkt (Maximum / Höchstwert) und Uhrzeit der Messung17:30:00 Uhr12.10 °C
Taupunkt (Minimum / Tiefstwert) und Uhrzeit der Messung05:45:007.20 °C
Anzahl der automatisch eingelesenen Messwerte 96

Detaillierte Wetter- und Klima- Messwerte für den 17.05.2017 in Holzhau im Erzgebirge (630m ü.NN)
ZeitTemperaturLuftdruckRel. LuftfeuchteWindWindrichtungWindchillTaupunktNiederschlag l/m²
23:45:0012.70 °C1015.40 hPa79.00 %9.20 °C 
23:30:0012.50 °C1015.40 hPa79.00 %6.48 km/hOSO12.50 °C9.00 °C 
23:15:0012.40 °C1015.60 hPa80.00 %9.10 °C 
23:00:0012.50 °C1015.60 hPa79.00 %9.00 °C 
22:45:0013.10 °C1015.80 hPa77.00 %2.52 km/hOSO13.10 °C9.20 °C 
22:30:0013.40 °C1015.90 hPa76.00 %9.30 °C 
22:15:0013.90 °C1016.00 hPa75.00 %9.50 °C 
22:00:0013.90 °C1016.10 hPa74.00 %9.30 °C 
21:45:0014.40 °C1016.20 hPa73.00 %9.60 °C 
21:30:0014.70 °C1016.30 hPa72.00 %6.48 km/hOSO14.70 °C9.70 °C 
21:15:0014.90 °C1016.40 hPa71.00 %2.52 km/hOSO14.90 °C9.70 °C 
21:00:0015.30 °C1016.60 hPa69.00 %9.70 °C 
20:45:0016.10 °C1016.60 hPa66.00 %9.80 °C 
20:30:0016.90 °C1016.60 hPa64.00 %10.10 °C 
20:15:0017.80 °C1016.80 hPa62.00 %10.40 °C 
20:00:0018.50 °C1016.90 hPa60.00 %32.40 km/hSSO18.90 °C10.60 °C 
19:45:0019.20 °C1017.00 hPa58.00 %10.70 °C 
19:30:0019.80 °C1017.00 hPa57.00 %24.48 km/hS20.60 °C11.00 °C 
19:15:0020.10 °C1017.10 hPa55.00 %10.80 °C 
19:00:0020.40 °C1017.30 hPa55.00 %25.92 km/hSO21.30 °C11.10 °C 
18:45:0020.80 °C1017.50 hPa54.00 %24.48 km/hOSO21.80 °C11.20 °C 
18:30:0021.10 °C1017.40 hPa54.00 %6.48 km/hSO21.10 °C11.40 °C 
18:15:0021.30 °C1017.60 hPa53.00 %11.30 °C 
18:00:0021.50 °C1017.70 hPa52.00 %3.96 km/hSSO21.50 °C11.20 °C 
17:45:0022.40 °C1018.00 hPa51.00 %660.96 km/hSSO21.30 °C11.80 °C 
17:30:0023.10 °C1018.10 hPa50.00 %12.10 °C 
17:15:0022.60 °C1018.10 hPa50.00 %11.70 °C 
17:00:0022.10 °C1018.30 hPa50.00 %20.88 km/hS23.40 °C11.20 °C 
16:45:0022.80 °C1018.50 hPa48.00 %7.92 km/hOSO22.80 °C11.20 °C 
16:30:0023.10 °C1018.50 hPa49.00 %10.44 km/hSW23.10 °C11.80 °C 
16:15:0023.20 °C1018.70 hPa48.00 %11.60 °C 
16:00:0023.30 °C1018.70 hPa49.00 %12.00 °C 
15:45:0023.10 °C1018.80 hPa49.00 %28.44 km/hSW24.40 °C11.80 °C 
15:30:0023.30 °C1019.10 hPa49.00 %34.92 km/hSSO24.50 °C12.00 °C 
15:15:0023.10 °C1019.10 hPa49.00 %60.84 km/hSSO24.00 °C11.80 °C 
15:00:0022.80 °C1019.40 hPa49.00 %11.50 °C 
14:45:0022.80 °C1019.40 hPa49.00 %11.50 °C 
14:30:0022.60 °C1019.50 hPa50.00 %32.40 km/hWSW23.70 °C11.70 °C 
14:15:0022.40 °C1019.50 hPa51.00 %5.04 km/hSSO22.40 °C11.80 °C 
14:00:0022.30 °C1019.70 hPa50.00 %11.40 °C 
13:45:0022.20 °C1019.80 hPa50.00 %9.00 km/hSO22.20 °C11.30 °C 
13:30:0022.00 °C1019.90 hPa51.00 %3.96 km/hSO22.00 °C11.40 °C 
13:15:0022.40 °C1020.00 hPa50.00 %11.50 °C 
13:00:0022.40 °C1020.30 hPa51.00 %6.48 km/hSSO22.40 °C11.80 °C 
12:45:0022.60 °C1020.40 hPa49.00 %11.40 °C 
12:30:0022.70 °C1020.40 hPa50.00 %11.70 °C 
12:15:0022.80 °C1020.60 hPa50.00 %11.80 °C 
12:00:0022.40 °C1020.70 hPa50.00 %11.50 °C 
11:45:0022.20 °C1020.80 hPa51.00 %16.92 km/hNNO22.20 °C11.60 °C 
11:30:0021.80 °C1020.90 hPa53.00 %11.80 °C 
11:15:0021.30 °C1021.10 hPa51.00 %10.80 °C 
11:00:0021.10 °C1021.20 hPa53.00 %11.20 °C 
10:45:0021.10 °C1021.30 hPa52.00 %10.90 °C 
10:30:0020.50 °C1021.50 hPa53.00 %11.52 km/hSSO20.50 °C10.60 °C 
10:15:0020.10 °C1021.50 hPa54.00 %2.52 km/hWNW20.10 °C10.50 °C 
10:00:0019.70 °C1021.60 hPa54.00 %36.36 km/hSW20.20 °C10.10 °C 
09:45:0019.50 °C1021.90 hPa56.00 %10.50 °C 
09:30:0018.80 °C1021.90 hPa58.00 %10.40 °C 
09:15:0018.20 °C1021.90 hPa59.00 %10.10 °C 
09:00:0017.90 °C1022.00 hPa61.00 %10.30 °C 
08:45:0017.10 °C1022.00 hPa62.00 %9.80 °C 
08:30:0016.60 °C1022.10 hPa64.00 %9.80 °C 
08:15:0016.30 °C1022.00 hPa66.00 %9.90 °C 
08:00:0016.10 °C1021.90 hPa69.00 %10.40 °C 
07:45:0015.60 °C1021.90 hPa69.00 %9.90 °C 
07:30:0015.10 °C1022.00 hPa71.00 %9.90 °C 
07:15:0015.20 °C1022.00 hPa72.00 %10.20 °C 
07:00:0012.40 °C1022.10 hPa79.00 %8.90 °C 
06:45:0011.30 °C1022.20 hPa80.00 %8.00 °C 
06:30:0010.90 °C1022.20 hPa80.00 %7.60 °C 
06:15:0010.80 °C1022.30 hPa79.00 %7.30 °C 
06:00:0010.80 °C1022.30 hPa79.00 %7.30 °C 
05:45:0010.90 °C1022.30 hPa78.00 %7.20 °C 
05:30:0011.30 °C1022.50 hPa77.00 %7.40 °C 
05:15:0011.40 °C1022.50 hPa77.00 %7.50 °C 
05:00:0011.40 °C1022.70 hPa78.00 %7.70 °C 
04:45:0011.60 °C1022.90 hPa77.00 %7.70 °C 
04:30:0011.60 °C1023.00 hPa76.00 %7.50 °C 
04:15:0011.60 °C1023.00 hPa77.00 %7.70 °C 
04:00:0011.60 °C1023.10 hPa77.00 %7.70 °C 
03:45:0011.60 °C1023.10 hPa77.00 %7.70 °C 
03:30:0011.60 °C1023.20 hPa77.00 %7.70 °C 
03:15:0011.60 °C1023.30 hPa77.00 %7.70 °C 
03:00:0011.60 °C1023.30 hPa78.00 %7.90 °C 
02:45:0011.40 °C1023.50 hPa78.00 %7.70 °C 
02:30:0011.30 °C1023.70 hPa78.00 %7.60 °C 
02:15:0011.40 °C1023.80 hPa78.00 %7.70 °C 
02:00:0011.40 °C1023.90 hPa77.00 %7.50 °C 
01:45:0011.40 °C1024.00 hPa78.00 %7.70 °C 
01:30:0011.40 °C1024.00 hPa78.00 %7.70 °C 
01:15:0011.30 °C1024.00 hPa78.00 %7.60 °C 
01:00:0011.30 °C1024.00 hPa78.00 %7.60 °C 
00:45:0011.20 °C1024.10 hPa79.00 %7.70 °C 
00:30:0011.20 °C1024.20 hPa79.00 %7.70 °C 
00:15:0011.10 °C1024.20 hPa80.00 %7.80 °C 
00:00:0010.90 °C1024.30 hPa80.00 %7.60 °C 

Permanenter Link zu dieser Seite: Wetter im Erzgebirge am 17.05.2017
Performance-Info: Die Erstellung der Seite / Statistik(en) / Tabelle(n) erforderte 5 Datenbankserver-Abfrage(n) und dauerte 122 Millisekunden. (Dieser Messwert ist von der Gesamt-Auslastung des Servers abhängig.)
Erzgebirge - Wetter | Erzgebirge - Wetter (Mobilgeräte) | Komplette Klimadatenbank